Time;durP1;ratioP1;P1;durP2;ratioP2;P2;SDS_P1;SDS_P2;PMS_P1;PMS_P2;Temp;Humidity;BMP_temperature;BMP_pressure;BME280_temperature;BME280_humidity;BME280_pressure;Samples;Min_cycle;Max_cycle;Signal;HPM_P1;HPM_P2
2023/11/05 00:01:19;;;;;;;0.77;0.60;;;10.10;78.70;;;9.26;77.51;94672.09;4970859;28;20451;-81
2023/11/05 00:03:47;;;;;;;1.97;0.70;;;10.10;78.80;;;9.38;77.23;94685.13;4968002;28;20450;-83
2023/11/05 00:06:18;;;;;;;0.60;0.50;;;10.20;78.80;;;9.49;76.19;94716.25;4968148;28;20447;-81
2023/11/05 00:08:45;;;;;;;1.07;0.50;;;10.20;78.30;;;9.51;76.49;94716.75;4967621;28;20942;-82
2023/11/05 00:11:13;;;;;;;1.20;0.70;;;10.20;78.30;;;9.55;76.78;94709.69;4967011;28;20993;-82
2023/11/05 00:13:40;;;;;;;1.53;0.90;;;10.30;78.30;;;9.59;76.32;94710.69;4969027;28;20468;-81
2023/11/05 00:16:08;;;;;;;0.83;0.57;;;10.30;78.30;;;9.24;76.10;94656.19;4967768;28;20544;-80
2023/11/05 00:18:36;;;;;;;0.60;0.50;;;10.30;77.90;;;9.53;75.39;94684.94;4965294;28;20794;-80
2023/11/05 00:21:05;;;;;;;0.50;0.50;;;10.30;77.90;;;9.43;74.96;94656.22;4959934;28;20447;-81
2023/11/05 00:23:33;;;;;;;0.70;0.70;;;10.30;77.60;;;9.21;75.87;94627.16;4967454;28;20465;-82
2023/11/05 00:26:00;;;;;;;0.57;0.50;;;10.30;77.60;;;9.50;75.46;94669.34;4965524;28;20468;-80
2023/11/05 00:28:27;;;;;;;1.17;0.80;;;10.20;77.40;;;9.53;75.70;94676.84;4968889;28;20830;-81
2023/11/05 00:30:56;;;;;;;1.33;0.90;;;10.20;77.50;;;9.57;75.15;94679.75;4964765;28;20450;-85
2023/11/05 00:33:23;;;;;;;1.73;0.50;;;10.30;77.60;;;9.01;75.31;94590.53;4960847;28;20472;-80
2023/11/05 00:35:51;;;;;;;0.50;0.47;;;10.30;77.70;;;9.46;75.21;94676.38;4961704;28;20484;-84
2023/11/05 00:38:20;;;;;;;0.70;0.67;;;10.20;77.30;;;9.57;74.93;94696.72;4969186;28;21108;-86
2023/11/05 00:40:47;;;;;;;0.50;0.43;;;10.20;77.30;;;9.41;74.10;94660.28;4983979;28;20459;-81
2023/11/05 00:43:14;;;;;;;0.70;0.40;;;10.20;77.10;;;9.52;74.54;94674.41;4966640;28;20451;-81
2023/11/05 00:45:42;;;;;;;1.17;0.43;;;10.20;77.00;;;9.23;74.14;94633.06;4965755;28;21030;-81
2023/11/05 00:48:09;;;;;;;0.93;0.63;;;10.20;77.10;;;9.15;74.71;94639.06;4962753;28;20458;-82
2023/11/05 00:50:36;;;;;;;1.13;0.57;;;10.10;77.00;;;9.41;75.26;94673.75;4973813;28;20473;-84
2023/11/05 00:53:04;;;;;;;1.20;0.50;;;10.10;77.10;;;9.35;75.25;94671.16;4965157;28;20464;-80
2023/11/05 00:55:34;;;;;;;0.50;0.30;;;10.00;77.10;;;9.22;75.18;94644.91;4968028;28;20565;-80
2023/11/05 00:58:01;;;;;;;0.60;0.50;;;10.10;77.20;;;9.38;75.21;94672.44;4958180;28;20812;-81
2023/11/05 01:00:28;;;;;;;0.60;0.40;;;10.00;77.20;;;9.42;74.91;94672.66;4962074;28;21241;-81
2023/11/05 01:02:56;;;;;;;0.50;0.43;;;10.00;77.00;;;9.33;75.11;94667.13;4958035;28;21101;-82
2023/11/05 01:05:23;;;;;;;0.60;0.40;;;10.00;77.30;;;9.26;75.07;94648.63;4963650;28;20455;-80
2023/11/05 01:07:50;;;;;;;0.60;0.60;;;10.00;77.20;;;9.34;75.12;94666.84;4959658;28;20465;-79
2023/11/05 01:10:20;;;;;;;0.80;0.53;;;10.00;77.10;;;9.20;75.41;94663.25;4959467;28;20494;-79
2023/11/05 01:12:48;;;;;;;0.90;0.40;;;9.90;78.20;;;9.18;75.22;94670.84;4961935;28;20513;-80
2023/11/05 01:15:15;;;;;;;0.43;0.37;;;9.90;78.20;;;9.10;75.88;94648.03;4962354;28;20666;-79
2023/11/05 01:17:43;;;;;;;1.57;0.77;;;9.80;78.20;;;9.11;75.55;94644.25;4960601;28;20473;-79
2023/11/05 01:20:12;;;;;;;0.63;0.50;;;9.80;78.30;;;8.91;75.76;94629.94;4958148;28;20473;-81
2023/11/05 01:22:39;;;;;;;0.40;0.30;;;9.70;78.50;;;8.95;75.92;94651.69;4974574;28;20456;-81
2023/11/05 01:25:08;;;;;;;0.50;0.40;;;9.60;78.30;;;8.89;76.06;94642.09;4959978;28;20471;-81
2023/11/05 01:27:35;;;;;;;0.50;0.50;;;9.60;78.30;;;8.89;75.88;94647.47;4958262;28;21025;-82
2023/11/05 01:30:04;;;;;;;0.50;0.40;;;9.60;78.40;;;8.86;76.57;94637.25;4964218;28;20445;-80
2023/11/05 01:32:32;;;;;;;1.20;0.40;;;9.60;78.60;;;8.72;77.04;94624.53;4963190;28;20815;-82
2023/11/05 01:35:00;;;;;;;0.50;0.50;;;9.50;78.50;;;8.60;77.37;94619.53;4966322;28;20539;-80
2023/11/05 01:37:28;;;;;;;0.73;0.40;;;9.50;78.70;;;8.31;77.04;94579.19;4963509;28;20544;-80
2023/11/05 01:39:57;;;;;;;0.50;0.40;;;9.40;78.70;;;8.73;77.18;94630.69;4966588;28;20460;-80
2023/11/05 01:42:25;;;;;;;1.13;0.67;;;9.40;78.80;;;8.54;77.63;94612.59;4968848;28;20465;-82
2023/11/05 01:44:52;;;;;;;1.27;0.40;;;9.40;78.80;;;8.56;77.85;94617.69;4968603;28;20449;-86
2023/11/05 01:47:21;;;;;;;1.13;0.30;;;9.40;78.90;;;8.57;77.75;94635.44;4968540;28;20464;-83
2023/11/05 01:49:49;;;;;;;0.57;0.37;;;9.30;79.00;;;8.22;78.80;94585.19;4977461;28;20457;-81
2023/11/05 01:52:19;;;;;;;2.20;0.37;;;9.20;79.20;;;8.46;78.60;94619.38;4959251;28;20489;-82
2023/11/05 01:54:46;;;;;;;0.70;0.40;;;9.20;79.20;;;8.02;78.90;94543.16;4968774;28;20889;-81
2023/11/05 01:57:15;;;;;;;1.00;0.47;;;9.20;79.50;;;8.39;79.44;94605.44;4979628;28;20446;-80
2023/11/05 01:59:43;;;;;;;0.80;0.40;;;9.20;79.50;;;8.33;78.64;94593.16;4955011;28;20464;-82
2023/11/05 02:02:11;;;;;;;0.50;0.40;;;9.20;79.50;;;8.26;79.16;94580.03;4964297;28;20533;-81
2023/11/05 02:04:42;;;;;;;0.93;0.30;;;9.10;79.60;;;8.26;79.26;94566.59;4962787;28;20460;-81
2023/11/05 02:07:10;;;;;;;1.07;0.50;;;9.10;79.60;;;8.36;79.20;94577.25;4974268;28;20473;-81
2023/11/05 02:09:38;;;;;;;0.40;0.27;;;9.10;79.60;;;7.85;79.45;94519.41;4963910;28;20461;-81
2023/11/05 02:12:06;;;;;;;0.97;0.50;;;9.00;79.70;;;7.93;78.29;94505.34;4967697;28;20461;-80
2023/11/05 02:14:34;;;;;;;1.00;0.40;;;9.10;79.50;;;8.44;77.80;94583.91;4968986;28;20453;-81
2023/11/05 02:17:01;;;;;;;1.03;0.47;;;9.20;79.30;;;8.36;79.02;94566.50;4965409;28;20536;-81
2023/11/05 02:19:29;;;;;;;0.50;0.40;;;9.10;79.30;;;8.34;78.63;94567.84;4967019;28;20474;-80
2023/11/05 02:22:03;;;;;;;0.47;0.30;;;9.10;79.30;;;8.00;78.58;94525.72;4960674;28;20449;-80
2023/11/05 02:24:32;;;;;;;0.63;0.43;;;9.00;79.50;;;8.16;79.13;94567.50;4965140;28;20931;-80
2023/11/05 02:27:00;;;;;;;0.50;0.33;;;8.90;79.70;;;8.21;79.03;94585.47;4959481;28;20528;-80
2023/11/05 02:29:28;;;;;;;0.60;0.40;;;8.90;79.60;;;8.06;79.23;94572.97;4962765;28;20533;-80
2023/11/05 02:31:55;;;;;;;0.57;0.43;;;8.90;79.60;;;8.14;79.50;94596.56;4965741;28;20448;-79
2023/11/05 02:34:23;;;;;;;1.47;0.60;;;8.90;79.80;;;8.23;78.78;94594.06;4962950;28;20964;-79
2023/11/05 02:36:50;;;;;;;1.07;0.40;;;8.90;79.60;;;7.76;79.12;94519.25;4951882;28;20473;-80
2023/11/05 02:39:17;;;;;;;0.60;0.50;;;8.90;79.50;;;7.85;78.81;94530.16;4973692;28;20473;-80
2023/11/05 02:41:45;;;;;;;0.50;0.30;;;8.90;79.40;;;8.18;79.00;94580.66;4966386;28;20460;-80
2023/11/05 02:44:12;;;;;;;0.60;0.53;;;8.90;79.50;;;8.15;78.38;94581.22;4962543;28;20464;-80
2023/11/05 02:46:40;;;;;;;2.97;0.47;;;8.90;79.40;;;8.17;78.03;94571.78;4961044;28;20946;-80
2023/11/05 02:49:09;;;;;;;0.40;0.30;;;8.90;79.30;;;8.18;78.36;94575.28;4947985;28;20453;-78
2023/11/05 02:51:37;;;;;;;1.00;0.57;;;8.90;79.30;;;8.08;78.18;94552.78;4957359;28;20472;-82
2023/11/05 02:54:04;;;;;;;0.57;0.43;;;8.90;79.30;;;8.26;78.61;94571.16;4960098;28;20485;-79
2023/11/05 02:56:32;;;;;;;0.50;0.40;;;9.00;79.20;;;8.22;78.47;94565.56;4961782;28;20477;-80
2023/11/05 02:59:00;;;;;;;1.00;0.40;;;8.90;79.10;;;8.23;78.25;94559.88;4963115;28;20479;-83
2023/11/05 03:01:28;;;;;;;1.63;0.30;;;8.90;79.10;;;8.10;77.78;94549.81;4957557;28;20891;-81
2023/11/05 03:03:56;;;;;;;0.40;0.40;;;8.90;79.10;;;8.00;78.45;94536.47;4966540;28;20480;-79
2023/11/05 03:06:25;;;;;;;0.40;0.40;;;8.90;79.10;;;8.14;78.14;94558.94;4962974;28;20458;-80
2023/11/05 03:08:52;;;;;;;1.37;0.40;;;8.90;79.10;;;8.13;78.67;94549.25;4954736;28;20460;-83
2023/11/05 03:11:19;;;;;;;0.83;0.40;;;8.80;79.10;;;8.23;77.58;94541.06;4960637;28;20449;-79
2023/11/05 03:13:46;;;;;;;0.40;0.30;;;9.00;79.00;;;8.17;77.98;94542.22;4961265;28;20465;-81
2023/11/05 03:16:16;;;;;;;0.80;0.30;;;8.90;78.90;;;8.16;77.75;94551.38;4961283;28;20474;-80
2023/11/05 03:18:46;;;;;;;0.30;0.27;;;8.90;79.00;;;8.06;78.27;94529.97;4966249;28;20479;-82
2023/11/05 03:21:16;;;;;;;0.73;0.40;;;8.90;79.00;;;8.21;77.57;94537.06;4961842;28;20459;-82
2023/11/05 03:23:44;;;;;;;1.80;0.30;;;8.90;78.90;;;8.08;77.62;94523.22;4983893;28;20459;-83
2023/11/05 03:26:11;;;;;;;0.63;0.40;;;8.90;79.00;;;8.01;76.87;94487.00;4980515;28;20463;-83
2023/11/05 03:28:38;;;;;;;2.20;0.50;;;9.00;78.80;;;7.82;76.68;94438.56;4964180;28;20508;-79
2023/11/05 03:31:06;;;;;;;0.70;0.30;;;9.10;78.60;;;8.52;76.20;94530.56;4981753;28;20745;-79
2023/11/05 03:33:35;;;;;;;0.60;0.50;;;9.20;78.30;;;8.32;76.08;94483.97;4962493;28;20457;-80
2023/11/05 03:36:02;;;;;;;0.63;0.40;;;9.30;78.20;;;8.60;75.42;94521.88;4964500;28;20480;-83
2023/11/05 03:38:29;;;;;;;0.97;0.33;;;9.30;78.10;;;8.62;75.24;94506.22;4959202;28;22506;-81
2023/11/05 03:40:56;;;;;;;2.43;0.50;;;9.40;77.90;;;8.75;74.68;94518.97;4964585;28;21150;-81
2023/11/05 03:43:24;;;;;;;1.30;0.57;;;9.40;78.10;;;8.73;74.92;94523.03;4963762;28;20465;-80
2023/11/05 03:45:51;;;;;;;0.60;0.33;;;9.50;77.90;;;8.85;74.57;94518.03;4964561;28;20450;-83
2023/11/05 03:48:18;;;;;;;0.77;0.40;;;9.50;77.60;;;8.84;73.74;94515.63;4963062;28;20473;-79
2023/11/05 03:50:47;;;;;;;0.70;0.40;;;9.50;77.40;;;8.73;74.38;94488.84;4967508;28;20446;-79
2023/11/05 03:53:14;;;;;;;0.40;0.40;;;9.60;77.40;;;8.96;73.97;94507.91;4968529;28;20449;-80
2023/11/05 03:55:42;;;;;;;3.00;0.30;;;9.60;77.40;;;8.79;74.19;94482.31;4971324;28;20446;-80
2023/11/05 03:58:09;;;;;;;1.43;0.67;;;9.60;77.40;;;8.92;73.55;94490.75;4967312;28;20458;-80
2023/11/05 04:00:36;;;;;;;0.50;0.30;;;9.60;77.30;;;8.86;74.01;94489.22;4966035;28;20476;-80
2023/11/05 04:03:03;;;;;;;0.87;0.30;;;9.60;77.20;;;8.34;73.81;94391.16;4964968;28;20459;-78
2023/11/05 04:05:31;;;;;;;1.03;0.50;;;9.60;77.20;;;8.92;73.75;94488.06;4963807;28;20446;-81
2023/11/05 04:08:02;;;;;;;0.60;0.60;;;9.60;77.00;;;8.99;73.08;94495.78;4963086;28;20461;-79
2023/11/05 04:10:30;;;;;;;1.43;0.40;;;9.70;76.80;;;9.01;73.40;94482.81;4963777;28;20546;-80
2023/11/05 04:12:57;;;;;;;0.40;0.30;;;9.70;76.90;;;8.99;73.33;94472.31;4969028;28;20894;-81
2023/11/05 04:15:24;;;;;;;0.50;0.37;;;9.70;77.00;;;8.93;74.32;94476.19;4969022;28;20684;-80
2023/11/05 04:17:51;;;;;;;1.53;0.87;;;9.70;77.20;;;9.00;73.97;94471.22;4983864;28;20486;-80
2023/11/05 04:20:19;;;;;;;0.50;0.37;;;9.70;77.20;;;9.04;73.62;94453.41;4961930;28;20461;-80
2023/11/05 04:22:47;;;;;;;0.33;0.20;;;9.70;77.20;;;9.05;74.14;94456.91;4967549;28;20465;-80
2023/11/05 04:25:18;;;;;;;0.87;0.30;;;9.80;77.30;;;9.09;73.35;94451.72;4965861;28;20453;-80
2023/11/05 04:27:46;;;;;;;0.60;0.40;;;9.80;77.10;;;8.98;74.02;94430.34;4965623;28;20458;-80
2023/11/05 04:30:15;;;;;;;0.60;0.40;;;9.80;77.10;;;8.99;73.29;94447.31;4965947;28;20508;-80
2023/11/05 04:32:43;;;;;;;0.60;0.30;;;9.70;76.80;;;9.06;73.82;94445.03;4966528;28;20453;-83
2023/11/05 04:35:11;;;;;;;0.63;0.30;;;9.80;76.90;;;9.02;73.37;94455.59;4970924;28;20456;-81
2023/11/05 04:37:38;;;;;;;0.77;0.50;;;9.80;77.00;;;8.81;74.26;94387.00;4967790;28;21053;-82
2023/11/05 04:40:08;;;;;;;0.50;0.30;;;9.80;77.00;;;9.04;73.16;94426.50;4967374;28;20457;-82
2023/11/05 04:42:36;;;;;;;1.20;0.40;;;9.80;76.90;;;8.90;73.60;94402.19;4965998;28;20457;-82
2023/11/05 04:45:04;;;;;;;1.13;0.37;;;9.80;76.90;;;8.81;73.43;94390.50;4969062;28;20476;-81
2023/11/05 04:47:31;;;;;;;1.17;0.40;;;9.80;77.00;;;9.06;73.18;94424.31;4968920;28;20462;-81
2023/11/05 04:49:59;;;;;;;2.30;0.43;;;9.70;76.70;;;9.10;72.78;94432.59;4969465;28;20457;-81
2023/11/05 04:52:26;;;;;;;0.40;0.40;;;9.80;76.40;;;9.16;72.15;94414.44;4969380;28;20457;-81
2023/11/05 04:54:54;;;;;;;0.70;0.40;;;9.80;76.40;;;9.17;71.64;94410.66;4968031;28;20987;-81
2023/11/05 04:57:22;;;;;;;1.63;0.40;;;9.80;76.10;;;9.23;71.64;94419.44;4965152;28;21043;-80
2023/11/05 04:59:50;;;;;;;0.70;0.50;;;9.90;76.10;;;9.06;71.76;94399.25;4962579;28;20463;-79
2023/11/05 05:02:18;;;;;;;0.83;0.50;;;9.90;76.00;;;9.04;71.28;94390.69;4963367;28;20508;-79
2023/11/05 05:04:46;;;;;;;0.60;0.40;;;9.90;75.70;;;9.15;71.26;94396.69;4983421;28;20458;-79
2023/11/05 05:07:14;;;;;;;0.50;0.30;;;10.00;74.50;;;9.16;70.56;94390.19;4961310;28;20441;-81
2023/11/05 05:09:42;;;;;;;1.20;0.67;;;10.00;74.10;;;8.98;70.05;94365.72;4963527;28;20465;-80
2023/11/05 05:12:09;;;;;;;0.70;0.40;;;10.00;74.20;;;9.11;70.44;94383.03;4966886;28;20469;-79
2023/11/05 05:14:38;;;;;;;0.60;0.60;;;10.00;74.00;;;9.11;70.15;94391.09;4966043;28;20468;-80
2023/11/05 05:17:08;;;;;;;1.23;0.60;;;10.00;74.00;;;9.24;70.75;94411.09;4965679;28;20480;-80
2023/11/05 05:19:35;;;;;;;1.23;0.50;;;10.00;74.00;;;9.24;69.91;94392.22;4968066;28;20501;-79
2023/11/05 05:22:03;;;;;;;0.43;0.27;;;10.00;73.80;;;9.15;69.91;94396.69;4968328;28;20470;-78
2023/11/05 05:24:30;;;;;;;0.40;0.30;;;10.00;73.70;;;9.18;69.51;94401.50;4965616;28;20449;-81
2023/11/05 05:26:57;;;;;;;2.00;0.40;;;10.00;73.50;;;9.27;70.40;94407.00;4963847;28;20451;-80
2023/11/05 05:29:25;;;;;;;1.27;0.50;;;10.00;73.50;;;9.33;69.60;94409.31;4963718;28;20469;-82
2023/11/05 05:31:52;;;;;;;2.20;0.50;;;10.00;73.40;;;9.26;69.45;94414.28;4945239;28;20460;-82
2023/11/05 05:34:22;;;;;;;0.57;0.37;;;10.00;73.30;;;9.06;69.46;94373.13;4965868;28;20469;-79
2023/11/05 05:36:49;;;;;;;0.80;0.47;;;10.00;73.30;;;9.27;69.64;94394.31;4957922;28;21052;-80
2023/11/05 05:39:17;;;;;;;0.80;0.40;;;10.00;73.30;;;9.41;69.31;94394.38;4961058;28;20465;-81
2023/11/05 05:41:44;;;;;;;1.93;0.40;;;10.00;73.20;;;9.16;69.07;94392.91;4967127;28;20451;-81
2023/11/05 05:44:13;;;;;;;0.83;0.40;;;10.00;73.10;;;9.33;68.93;94408.50;4959319;28;20452;-82
2023/11/05 05:46:41;;;;;;;0.73;0.60;;;10.00;73.00;;;8.72;68.79;94333.84;4981673;28;20464;-82
2023/11/05 05:49:08;;;;;;;0.90;0.73;;;10.00;72.90;;;9.43;68.91;94402.13;4967772;28;20455;-82
2023/11/05 05:51:39;;;;;;;0.40;0.30;;;10.00;72.80;;;9.11;68.19;94358.78;4965775;28;20460;-81
2023/11/05 05:54:06;;;;;;;0.87;0.40;;;10.10;72.70;;;9.45;68.94;94394.56;4968664;28;20473;-82
2023/11/05 05:56:34;;;;;;;0.67;0.30;;;10.10;72.50;;;9.49;67.36;94395.59;4960224;28;20912;-79
2023/11/05 05:59:01;;;;;;;0.60;0.40;;;10.20;72.30;;;9.30;67.73;94399.13;4960489;28;20446;-78
2023/11/05 06:01:29;;;;;;;0.50;0.40;;;10.10;72.10;;;9.41;67.63;94385.47;4960686;28;20466;-78
2023/11/05 06:03:57;;;;;;;1.03;0.60;;;10.20;72.10;;;9.48;67.54;94404.75;4961182;28;20458;-79
2023/11/05 06:06:25;;;;;;;0.93;0.67;;;10.20;72.00;;;9.13;67.14;94353.09;4958796;28;20453;-81
2023/11/05 06:08:53;;;;;;;2.00;0.40;;;10.20;71.70;;;9.36;67.33;94391.75;4959787;28;20508;-83
2023/11/05 06:11:21;;;;;;;0.93;0.63;;;10.20;71.60;;;9.18;66.87;94358.41;4963069;28;20459;-79
2023/11/05 06:13:48;;;;;;;1.27;0.60;;;10.20;71.40;;;9.50;66.81;94410.66;4962252;28;21009;-78
2023/11/05 06:16:16;;;;;;;0.77;0.47;;;10.20;71.10;;;9.58;66.81;94422.63;4961534;28;20477;-82
2023/11/05 06:18:43;;;;;;;0.90;0.50;;;10.30;71.20;;;9.58;67.02;94422.63;4964163;28;20453;-80
2023/11/05 06:21:10;;;;;;;0.80;0.53;;;10.20;71.20;;;9.11;66.32;94350.72;4968407;28;20984;-83
2023/11/05 06:23:38;;;;;;;1.60;0.53;;;10.30;71.00;;;9.67;65.75;94422.75;4971059;28;20441;-81
2023/11/05 06:26:07;;;;;;;1.17;0.60;;;10.30;70.70;;;9.24;65.92;94357.22;4971444;28;20465;-81
2023/11/05 06:28:34;;;;;;;1.57;0.40;;;10.40;70.50;;;9.66;65.17;94410.38;4965243;28;20442;-81
2023/11/05 06:31:01;;;;;;;1.57;0.57;;;10.40;70.50;;;9.62;65.50;94405.56;4960369;28;20469;-79
2023/11/05 06:33:33;;;;;;;1.80;0.50;;;10.40;70.30;;;9.81;65.45;94422.75;4955484;28;20492;-76
2023/11/05 06:36:01;;;;;;;1.13;0.90;;;10.40;70.30;;;9.69;65.58;94415.16;4970804;28;20451;-82
2023/11/05 06:38:28;;;;;;;1.10;0.70;;;10.40;70.20;;;9.80;65.36;94434.63;4963257;28;20554;-77
2023/11/05 06:40:55;;;;;;;1.20;0.53;;;10.40;70.20;;;9.81;64.83;94439.75;4969471;28;20461;-78
2023/11/05 06:43:24;;;;;;;1.43;0.50;;;10.40;70.10;;;9.78;64.83;94440.31;4964744;28;20469;-81
2023/11/05 06:45:51;;;;;;;1.73;0.40;;;10.40;70.00;;;9.81;64.81;94433.53;4971132;28;20458;-84
2023/11/05 06:48:19;;;;;;;1.00;0.73;;;10.50;70.00;;;9.87;64.59;94438.53;4970929;28;20463;-79
2023/11/05 06:50:46;;;;;;;1.97;0.43;;;10.50;69.70;;;9.95;63.93;94428.94;4959699;28;20506;-74
2023/11/05 06:53:14;;;;;;;6.20;0.90;;;10.60;69.50;;;10.10;63.58;94435.97;4965546;28;20451;-73
2023/11/05 06:55:42;;;;;;;1.00;0.40;;;10.70;69.20;;;10.12;63.41;94436.44;4966607;28;20476;-77
2023/11/05 06:58:10;;;;;;;1.60;0.60;;;10.70;69.00;;;10.19;62.74;94442.22;4969189;28;20471;-74
2023/11/05 07:00:41;;;;;;;1.43;0.60;;;10.80;68.70;;;10.28;62.28;94444.25;4968447;28;20462;-75
2023/11/05 07:03:08;;;;;;;0.60;0.47;;;10.90;68.60;;;10.40;62.81;94446.41;4972849;28;20452;-73
2023/11/05 07:05:36;;;;;;;1.30;0.83;;;11.00;68.60;;;10.53;61.54;94447.53;4967986;28;20470;-77
2023/11/05 07:08:04;;;;;;;0.90;0.50;;;11.10;68.10;;;10.57;61.32;94443.91;4963312;28;20455;-79
2023/11/05 07:10:31;;;;;;;1.57;0.50;;;11.20;67.60;;;10.68;60.64;94439.09;4965701;28;20449;-81
2023/11/05 07:12:58;;;;;;;0.63;0.40;;;11.30;67.50;;;10.82;60.31;94435.56;4968432;28;20468;-81
2023/11/05 07:15:26;;;;;;;1.27;0.67;;;11.50;67.20;;;10.97;59.74;94451.41;4964677;28;20495;-81
2023/11/05 07:17:54;;;;;;;0.70;0.60;;;11.50;66.80;;;10.98;59.53;94454.94;4967612;28;20483;-82
2023/11/05 07:20:21;;;;;;;1.33;0.70;;;11.60;66.60;;;10.99;60.23;94461.91;4964978;28;20486;-83
2023/11/05 07:22:49;;;;;;;1.23;0.57;;;11.60;66.70;;;11.05;59.62;94450.69;4958882;28;20465;-83
2023/11/05 07:25:17;;;;;;;1.20;0.50;;;11.70;66.70;;;11.31;59.48;94466.31;4965855;28;20693;-82
2023/11/05 07:27:52;;;;;;;0.57;0.47;;;11.90;66.70;;;11.30;59.58;94475.53;4969317;28;20468;-82
2023/11/05 07:30:21;;;;;;;1.07;0.57;;;11.90;66.10;;;11.50;58.36;94468.03;4965291;28;20459;-84
2023/11/05 07:32:49;;;;;;;0.70;0.60;;;12.00;65.90;;;11.47;59.31;94449.72;4964727;28;20446;-83
2023/11/05 07:35:18;;;;;;;2.73;0.67;;;12.00;66.10;;;11.54;58.41;94466.28;4964086;28;20459;-82
2023/11/05 07:37:45;;;;;;;0.90;0.50;;;12.10;65.70;;;11.28;58.90;94439.88;4969238;28;20552;-82
2023/11/05 07:40:13;;;;;;;1.43;0.40;;;12.10;65.50;;;11.40;58.96;94463.66;4966435;28;20463;-82
2023/11/05 07:42:42;;;;;;;3.10;0.97;;;12.10;65.50;;;11.32;58.93;94462.50;4962170;28;20466;-84
2023/11/05 07:45:10;;;;;;;1.17;0.60;;;12.00;65.40;;;11.36;59.11;94480.81;4964026;28;20453;-83
2023/11/05 07:47:39;;;;;;;0.60;0.50;;;12.00;65.50;;;11.17;59.40;94449.38;4959346;28;20952;-83
2023/11/05 07:50:12;;;;;;;0.90;0.50;;;12.00;65.50;;;11.03;58.95;94434.00;4967725;28;20451;-82
2023/11/05 07:52:42;;;;;;;1.03;0.40;;;12.00;65.60;;;11.37;58.82;94474.28;4967066;28;20500;-83
2023/11/05 07:55:11;;;;;;;0.90;0.70;;;12.00;65.30;;;11.46;58.80;94464.34;4965124;28;20455;-81
2023/11/05 07:57:43;;;;;;;1.07;0.50;;;12.20;65.20;;;11.62;58.84;94459.34;4966886;28;20478;-82
2023/11/05 08:00:15;;;;;;;2.60;0.70;;;12.30;65.30;;;11.66;58.49;94464.94;4961556;28;20467;-82
2023/11/05 08:02:42;;;;;;;1.27;0.50;;;12.30;65.00;;;11.72;58.10;94461.78;4963923;28;20746;-83
2023/11/05 08:05:09;;;;;;;1.70;0.60;;;12.40;64.80;;;11.77;58.12;94450.06;4986817;28;20607;-82
2023/11/05 08:07:37;;;;;;;1.13;0.50;;;12.50;64.90;;;11.75;58.06;94452.25;4968911;28;20954;-83
2023/11/05 08:10:13;;;;;;;1.30;0.47;;;12.50;64.70;;;11.77;58.12;94463.56;4966254;28;20518;-82
2023/11/05 08:12:55;;;;;;;0.67;0.50;;;12.50;64.70;;;11.77;58.21;94461.66;4964346;28;20540;-84
2023/11/05 08:15:23;;;;;;;1.90;0.60;;;12.50;65.00;;;11.60;58.46;94427.22;4967414;28;20475;-84
2023/11/05 08:17:59;;;;;;;3.03;0.73;;;12.50;65.00;;;11.82;58.07;94465.31;4968760;28;20490;-84
2023/11/05 08:20:26;;;;;;;1.60;0.47;;;12.60;64.80;;;11.80;58.21;94479.19;4978105;28;20928;-77
2023/11/05 08:23:13;;;;;;;;;;;;;;;;;;;;;
2023/11/05 08:25:43;;;;;;;1.33;0.50;;;12.60;64.40;;;11.87;58.17;94476.81;4971370;28;20457;-84
2023/11/05 08:29:14;;;;;;;1.10;0.50;;;12.60;64.40;;;11.77;58.40;94482.50;4967455;28;20482;-81
2023/11/05 08:34:54;;;;;;;1.17;0.93;;;12.40;64.60;;;11.93;58.62;94499.13;4334424;23;20548;-73
2023/11/05 08:37:21;;;;;;;0.70;0.67;;;12.50;65.00;;;11.90;58.35;94497.03;4979722;28;21008;-73
2023/11/05 08:39:49;;;;;;;2.80;1.10;;;12.60;64.60;;;11.83;58.50;94493.97;4971424;28;20915;-75
2023/11/05 08:42:18;;;;;;;2.10;0.63;;;12.50;64.40;;;11.74;58.95;94502.03;4984499;28;20497;-72
2023/11/05 08:44:45;;;;;;;0.83;0.40;;;12.50;64.60;;;11.88;59.00;94494.63;4985231;28;20457;-79
2023/11/05 08:47:44;;;;;;;0.90;0.40;;;12.50;65.00;;;11.94;59.24;94508.06;4986358;28;20447;-79
2023/11/05 08:50:32;;;;;;;0.60;0.60;;;12.50;64.80;;;11.83;59.39;94502.88;4988562;28;20535;-79
2023/11/05 08:53:24;;;;;;;0.93;0.60;;;12.50;65.00;;;11.73;59.43;94497.72;4960938;28;20466;-78
2023/11/05 08:55:51;;;;;;;2.10;0.40;;;12.40;65.00;;;11.64;60.27;94510.41;4988288;28;20457;-79
2023/11/05 08:59:27;;;;;;;1.17;0.50;;;12.30;65.40;;;11.53;60.91;94515.28;4987179;28;20481;-79
2023/11/05 09:01:55;;;;;;;1.27;0.50;;;12.20;65.80;;;11.75;60.48;94512.56;4951732;28;20442;-79
2023/11/05 09:04:33;;;;;;;3.23;0.60;;;12.20;65.90;;;11.83;60.99;94519.13;4983673;28;20455;-79
2023/11/05 09:07:06;;;;;;;0.93;0.43;;;12.30;66.30;;;11.53;61.85;94507.94;4986159;28;20453;-79
2023/11/05 09:12:30;;;;;;;0.73;0.57;;;12.20;67.00;;;11.54;62.67;94523.06;4975868;28;21050;-78
2023/11/05 09:16:07;;;;;;;;;;;;;;;;;;;;;
2023/11/05 09:22:28;;;;;;;0.60;0.50;;;12.30;68.60;;;11.75;64.74;94533.38;4762666;29;20468;-78
2023/11/05 09:43:20;;;;;;;1.17;0.50;;;13.20;66.80;;;12.69;59.05;94540.72;4808344;29;20826;-76
2023/11/05 09:45:50;;;;;;;1.10;0.47;;;13.30;66.00;;;12.70;58.58;94555.84;4830661;29;20474;-77
2023/11/05 09:49:12;;;;;;;1.63;0.50;;;13.30;65.80;;;12.94;58.21;94565.47;4934950;28;20463;-77
2023/11/05 10:13:33;;;;;;;0.97;0.47;;;13.00;68.90;;;12.50;64.29;94634.91;4981421;28;20445;-78
2023/11/05 10:16:03;;;;;;;2.70;0.53;;;13.10;69.30;;;12.50;64.48;94643.03;4991464;28;20519;-77
2023/11/05 10:18:35;;;;;;;1.73;0.50;;;13.10;69.40;;;12.36;65.06;94638.53;4980339;28;20598;-76
2023/11/05 10:21:27;;;;;;;0.87;0.47;;;13.10;69.80;;;12.67;66.31;94643.16;4981888;28;20924;-82
2023/11/05 10:23:59;;;;;;;2.60;0.43;;;13.20;70.70;;;12.81;64.64;94653.88;4981047;28;20522;-74
2023/11/05 10:29:34;;;;;;;0.70;0.40;;;13.30;70.30;;;12.52;65.64;94646.25;4899250;28;20506;-76
2023/11/05 10:32:02;;;;;;;1.60;1.00;;;13.10;70.50;;;12.60;65.61;94648.19;4990815;28;20462;-74
2023/11/05 10:34:32;;;;;;;0.93;0.53;;;13.20;70.80;;;12.29;67.17;94654.38;4980279;28;20460;-75
2023/11/05 10:36:59;;;;;;;2.97;0.50;;;13.00;71.10;;;12.50;66.58;94651.16;4985237;28;20464;-76
2023/11/05 10:39:28;;;;;;;1.07;0.80;;;13.00;71.00;;;12.89;64.52;94663.97;4981872;28;20983;-76
2023/11/05 10:41:55;;;;;;;1.77;0.60;;;13.30;70.80;;;12.95;64.58;94663.81;4982458;28;20877;-75
2023/11/05 10:44:23;;;;;;;1.37;0.53;;;13.50;70.60;;;13.19;63.45;94658.00;4980330;28;20460;-77
2023/11/05 10:46:55;;;;;;;1.27;0.67;;;13.70;70.10;;;13.51;62.38;94658.72;4979539;28;20543;-77
2023/11/05 10:49:23;;;;;;;1.43;0.70;;;14.00;69.50;;;13.79;60.88;94652.22;4984664;28;20992;-78
2023/11/05 10:51:51;;;;;;;2.10;0.60;;;14.20;69.00;;;13.59;61.14;94621.91;4987180;28;20458;-76
2023/11/05 10:54:18;;;;;;;2.67;0.70;;;14.40;69.10;;;13.67;59.71;94637.38;4978640;28;20498;-77
2023/11/05 10:56:46;;;;;;;0.97;0.80;;;14.50;67.80;;;14.10;58.47;94665.63;4982588;28;20464;-78
2023/11/05 10:59:37;;;;;;;1.80;0.93;;;14.60;67.70;;;14.49;57.17;94678.53;4983003;28;20479;-77
2023/11/05 11:02:07;;;;;;;0.53;0.40;;;14.90;67.20;;;14.27;57.30;94664.03;4998325;28;20474;-77
2023/11/05 11:04:35;;;;;;;0.50;0.40;;;14.90;66.40;;;13.77;58.01;94668.00;4980826;28;20467;-76
2023/11/05 11:07:02;;;;;;;3.40;0.40;;;14.60;66.30;;;13.60;58.25;94651.41;4981306;28;20468;-77
2023/11/05 11:09:56;;;;;;;1.07;0.50;;;14.40;66.20;;;13.49;57.98;94707.06;4978767;28;20555;-75
2023/11/05 11:12:54;;;;;;;0.70;0.40;;;14.30;65.60;;;13.21;58.44;94660.41;4978331;28;20894;-76
2023/11/05 11:15:34;;;;;;;1.50;0.50;;;14.00;65.70;;;13.65;57.78;94714.75;4904715;29;20555;-74
2023/11/05 11:18:05;;;;;;;0.80;0.50;;;14.10;65.60;;;13.21;58.90;94720.81;4901486;29;20492;-77
2023/11/05 11:20:33;;;;;;;0.60;0.33;;;14.00;65.80;;;13.59;57.50;94703.25;4980236;28;20458;-78
2023/11/05 11:23:02;;;;;;;0.60;0.40;;;14.10;65.60;;;13.52;57.97;94728.13;4974891;28;20456;-77
2023/11/05 11:25:33;;;;;;;1.33;0.40;;;14.20;65.30;;;13.39;57.63;94731.72;4975766;28;20476;-75
2023/11/05 11:28:03;;;;;;;1.07;0.33;;;14.00;64.80;;;13.62;57.35;94734.38;4974913;28;20458;-77
2023/11/05 11:30:31;;;;;;;0.40;0.30;;;14.20;64.80;;;13.62;57.40;94739.81;4978771;28;20447;-78
2023/11/05 11:32:58;;;;;;;1.10;0.40;;;14.20;65.20;;;13.39;58.84;94746.09;4977239;28;20457;-76
2023/11/05 11:35:28;;;;;;;1.80;0.30;;;14.10;65.60;;;13.09;60.82;94772.09;4980928;28;20817;-76